Time;durP1;ratioP1;P1;durP2;ratioP2;P2;SDS_P1;SDS_P2;PMS_P1;PMS_P2;Temp;Humidity;BMP_temperature;BMP_pressure;BME280_temperature;BME280_humidity;BME280_pressure;Samples;Min_cycle;Max_cycle;Signal;HPM_P1;HPM_P2
2022/10/14 00:01:38;;;;;;;16.20;12.37;;;10.50;99.90;;;;;;5040760;28;20214;-79
2022/10/14 00:04:04;;;;;;;14.90;12.53;;;10.40;99.90;;;;;;5042327;28;20259;-76
2022/10/14 00:06:31;;;;;;;17.27;13.03;;;10.40;99.90;;;;;;5042637;28;20252;-78
2022/10/14 00:09:03;;;;;;;15.37;13.37;;;10.50;99.90;;;;;;5042979;28;20201;-78
2022/10/14 00:11:31;;;;;;;17.37;13.33;;;10.40;99.90;;;;;;5041191;28;20205;-78
2022/10/14 00:14:04;;;;;;;14.13;12.23;;;10.40;99.90;;;;;;5042939;28;20220;-77
2022/10/14 00:16:33;;;;;;;18.63;14.30;;;10.40;99.90;;;;;;5044108;28;20210;-76
2022/10/14 00:19:00;;;;;;;18.10;14.27;;;10.40;99.90;;;;;;5043860;28;20193;-79
2022/10/14 00:21:26;;;;;;;17.23;13.97;;;10.50;99.90;;;;;;5044725;28;20196;-77
2022/10/14 00:23:52;;;;;;;20.67;15.00;;;10.50;99.90;;;;;;5044334;28;20206;-79
2022/10/14 00:26:21;;;;;;;18.53;14.27;;;10.50;99.90;;;;;;5045422;28;20186;-79
2022/10/14 00:28:47;;;;;;;16.27;14.07;;;10.50;99.90;;;;;;5045276;28;20599;-79
2022/10/14 00:31:14;;;;;;;17.33;13.53;;;10.60;99.90;;;;;;5042595;28;20201;-79
2022/10/14 00:33:39;;;;;;;18.73;13.73;;;10.50;99.90;;;;;;5043679;28;20796;-78
2022/10/14 00:36:06;;;;;;;15.13;12.10;;;10.60;99.90;;;;;;5043652;28;20213;-80
2022/10/14 00:38:32;;;;;;;18.70;14.13;;;10.50;99.90;;;;;;5042543;28;20186;-79
2022/10/14 00:40:58;;;;;;;16.47;14.07;;;10.60;99.90;;;;;;5043447;28;20193;-79
2022/10/14 00:43:26;;;;;;;20.77;14.90;;;10.60;99.90;;;;;;5044367;28;20194;-80
2022/10/14 00:45:51;;;;;;;15.83;13.70;;;10.60;99.90;;;;;;5044702;28;20243;-79
2022/10/14 00:48:19;;;;;;;16.92;14.13;;;10.70;99.90;;;;;;5044517;28;20273;-79
2022/10/14 00:50:48;;;;;;;20.10;15.73;;;10.60;99.90;;;;;;5044548;28;20186;-79
2022/10/14 00:53:14;;;;;;;16.27;14.33;;;10.70;99.90;;;;;;5044003;28;20214;-79
2022/10/14 00:55:41;;;;;;;17.15;13.30;;;10.70;99.90;;;;;;5043814;28;20304;-79
2022/10/14 00:58:07;;;;;;;13.30;11.57;;;10.70;99.90;;;;;;5044443;28;20269;-80
2022/10/14 01:00:33;;;;;;;17.90;14.23;;;10.50;99.90;;;;;;5043167;28;20186;-78
2022/10/14 01:02:59;;;;;;;20.37;14.63;;;10.60;99.90;;;;;;5044032;28;20228;-78
2022/10/14 01:05:35;;;;;;;17.20;13.97;;;10.70;99.90;;;;;;5043069;28;20193;-78
2022/10/14 01:08:21;;;;;;;18.53;14.43;;;10.80;99.90;;;;;;5044729;28;20185;-79
2022/10/14 01:10:57;;;;;;;15.82;13.13;;;10.80;99.90;;;;;;5046557;28;20186;-79
2022/10/14 01:13:35;;;;;;;16.73;14.77;;;10.80;99.90;;;;;;5045723;28;20205;-78
2022/10/14 01:16:22;;;;;;;15.10;13.15;;;10.80;99.90;;;;;;5047032;28;20213;-78
2022/10/14 01:19:23;;;;;;;16.47;13.30;;;10.80;99.90;;;;;;5046834;28;20182;-78
2022/10/14 01:22:00;;;;;;;16.15;13.32;;;10.80;99.90;;;;;;5005039;28;20617;-78
2022/10/14 01:24:40;;;;;;;15.82;12.93;;;10.80;99.90;;;;;;5047412;28;20248;-78
2022/10/14 01:27:18;;;;;;;17.27;14.17;;;10.80;99.90;;;;;;5048985;28;20181;-78
2022/10/14 01:29:59;;;;;;;17.52;15.18;;;10.80;99.90;;;;;;5047647;28;20558;-79
2022/10/14 01:32:28;;;;;;;15.00;12.13;;;10.80;99.90;;;;;;5048327;28;20729;-78
2022/10/14 01:35:15;;;;;;;16.20;12.93;;;10.80;99.90;;;;;;5048113;28;20206;-79
2022/10/14 01:37:51;;;;;;;17.77;14.67;;;10.90;99.90;;;;;;5047060;28;20182;-78
2022/10/14 01:40:31;;;;;;;17.00;13.77;;;10.90;99.90;;;;;;5048648;28;20178;-78
2022/10/14 01:42:59;;;;;;;14.80;12.35;;;10.90;99.90;;;;;;5046059;28;20326;-79
2022/10/14 01:45:26;;;;;;;14.68;12.55;;;10.90;99.90;;;;;;5046528;28;20190;-78
2022/10/14 01:47:53;;;;;;;14.98;12.05;;;11.10;99.90;;;;;;5045988;28;20196;-78
2022/10/14 01:50:22;;;;;;;15.40;13.73;;;11.10;99.90;;;;;;5046857;28;20218;-78
2022/10/14 01:53:00;;;;;;;15.20;13.32;;;10.90;99.90;;;;;;5047861;28;20562;-78
2022/10/14 01:55:30;;;;;;;16.80;14.45;;;10.90;99.90;;;;;;5045743;28;20248;-78
2022/10/14 01:57:57;;;;;;;17.20;13.98;;;10.90;99.90;;;;;;5047438;28;20178;-78
2022/10/14 02:00:23;;;;;;;15.65;13.95;;;11.00;99.90;;;;;;5048292;28;20178;-79
2022/10/14 02:02:48;;;;;;;19.30;14.32;;;10.90;99.90;;;;;;5047059;28;20205;-78
2022/10/14 02:05:28;;;;;;;14.15;12.73;;;11.10;99.90;;;;;;5045570;28;20554;-78
2022/10/14 02:08:03;;;;;;;18.00;13.82;;;11.00;99.90;;;;;;5045980;28;20265;-78
2022/10/14 02:10:50;;;;;;;16.97;13.37;;;10.90;99.90;;;;;;5046115;28;20264;-78
2022/10/14 02:13:18;;;;;;;14.48;12.70;;;11.10;99.90;;;;;;5046651;28;20220;-79
2022/10/14 02:16:05;;;;;;;19.35;15.32;;;11.00;99.90;;;;;;5046927;28;20210;-78
2022/10/14 02:18:49;;;;;;;16.88;14.10;;;11.00;99.90;;;;;;5046789;28;20179;-79
2022/10/14 02:21:28;;;;;;;18.60;14.05;;;11.20;99.90;;;;;;5047410;28;20711;-78
2022/10/14 02:24:13;;;;;;;16.48;14.43;;;11.10;99.90;;;;;;5046395;28;20202;-78
2022/10/14 02:26:41;;;;;;;19.42;14.23;;;11.10;99.90;;;;;;5047167;28;20825;-78
2022/10/14 02:29:06;;;;;;;15.35;12.70;;;11.10;99.90;;;;;;5047684;28;20190;-79
2022/10/14 02:31:34;;;;;;;16.25;14.52;;;11.10;99.90;;;;;;5047431;28;20213;-80
2022/10/14 02:34:04;;;;;;;13.77;12.38;;;11.10;99.90;;;;;;5045482;28;20237;-78
2022/10/14 02:36:31;;;;;;;17.40;12.83;;;11.10;99.90;;;;;;5046804;28;21114;-78
2022/10/14 02:38:59;;;;;;;13.77;12.25;;;11.20;99.90;;;;;;5046555;28;20179;-78
2022/10/14 02:41:30;;;;;;;16.55;13.90;;;11.10;99.90;;;;;;5045839;28;20182;-79
2022/10/14 02:43:55;;;;;;;14.40;12.55;;;11.10;99.90;;;;;;5046339;28;20198;-78
2022/10/14 02:46:21;;;;;;;15.20;13.10;;;11.10;99.90;;;;;;5045539;28;20627;-78
2022/10/14 02:48:50;;;;;;;15.02;12.57;;;11.10;99.90;;;;;;5046231;28;20261;-78
2022/10/14 02:51:16;;;;;;;15.77;13.45;;;11.10;99.90;;;;;;5045872;28;20212;-78
2022/10/14 02:53:42;;;;;;;14.82;13.10;;;11.40;99.90;;;;;;5045752;28;20214;-78
2022/10/14 02:56:07;;;;;;;17.20;14.68;;;11.20;99.90;;;;;;5046141;28;20260;-78
2022/10/14 02:58:33;;;;;;;15.82;14.13;;;11.20;99.90;;;;;;5043349;28;20194;-78
2022/10/14 03:00:59;;;;;;;16.52;13.63;;;11.20;99.90;;;;;;5043309;28;20194;-79
2022/10/14 03:03:24;;;;;;;19.13;14.70;;;11.30;99.90;;;;;;5045920;28;20202;-78
2022/10/14 03:05:50;;;;;;;15.57;12.60;;;11.30;99.90;;;;;;5046652;28;20577;-79
2022/10/14 03:08:16;;;;;;;16.27;12.57;;;11.30;99.90;;;;;;5045682;28;20193;-79
2022/10/14 03:10:45;;;;;;;13.93;12.40;;;11.30;99.90;;;;;;5046816;28;20174;-79
2022/10/14 03:13:11;;;;;;;13.93;12.48;;;11.30;99.90;;;;;;5045686;28;20202;-78
2022/10/14 03:15:36;;;;;;;14.10;12.60;;;11.30;99.90;;;;;;5045911;28;20202;-79
2022/10/14 03:18:02;;;;;;;16.42;13.10;;;11.30;99.90;;;;;;5046484;28;20277;-79
2022/10/14 03:20:28;;;;;;;14.63;12.73;;;11.30;99.90;;;;;;5046919;28;20195;-79
2022/10/14 03:22:53;;;;;;;17.38;13.20;;;11.20;99.90;;;;;;5045399;28;20206;-78
2022/10/14 03:25:19;;;;;;;17.38;13.30;;;11.30;99.90;;;;;;5047262;28;20178;-78
2022/10/14 03:27:45;;;;;;;14.95;12.50;;;11.30;99.90;;;;;;5047053;28;20706;-80
2022/10/14 03:30:11;;;;;;;14.45;12.68;;;11.30;99.90;;;;;;5047119;28;20190;-79
2022/10/14 03:32:36;;;;;;;14.18;12.40;;;11.30;99.90;;;;;;5045345;28;20178;-78
2022/10/14 03:35:02;;;;;;;16.67;13.35;;;11.20;99.90;;;;;;5045791;28;20191;-79
2022/10/14 03:37:27;;;;;;;19.33;15.18;;;11.30;99.90;;;;;;5046242;28;20186;-78
2022/10/14 03:39:53;;;;;;;18.17;14.75;;;11.30;99.90;;;;;;5046166;28;20208;-78
2022/10/14 03:42:18;;;;;;;18.27;15.18;;;11.40;99.90;;;;;;5046000;28;20182;-79
2022/10/14 03:44:45;;;;;;;16.80;13.80;;;11.50;99.90;;;;;;5046234;28;20206;-79
2022/10/14 03:47:10;;;;;;;14.80;13.27;;;11.40;99.90;;;;;;5046183;28;20601;-78
2022/10/14 03:49:36;;;;;;;18.77;14.10;;;11.40;99.90;;;;;;5046341;28;20182;-79
2022/10/14 03:52:02;;;;;;;17.95;14.27;;;11.40;99.90;;;;;;5044740;28;20190;-79
2022/10/14 03:54:27;;;;;;;13.88;12.43;;;11.40;99.90;;;;;;5046505;28;20206;-78
2022/10/14 03:56:53;;;;;;;14.38;12.88;;;11.50;99.90;;;;;;5046143;28;20260;-78
2022/10/14 03:59:18;;;;;;;13.80;12.18;;;11.40;99.90;;;;;;5046082;28;20273;-78
2022/10/14 04:01:44;;;;;;;15.95;12.57;;;11.30;99.90;;;;;;5046196;28;20646;-79
2022/10/14 04:04:10;;;;;;;16.60;14.77;;;11.50;99.90;;;;;;5045545;28;20206;-79
2022/10/14 04:06:36;;;;;;;15.75;13.18;;;11.40;99.90;;;;;;5046279;28;20186;-78
2022/10/14 04:09:03;;;;;;;13.45;12.02;;;11.60;99.90;;;;;;5046096;28;20208;-79
2022/10/14 04:11:28;;;;;;;13.40;12.00;;;11.50;99.90;;;;;;5044128;28;20243;-79
2022/10/14 04:13:57;;;;;;;13.77;11.90;;;11.40;99.90;;;;;;5045357;28;20605;-79
2022/10/14 04:16:23;;;;;;;16.92;14.07;;;11.50;99.90;;;;;;5044913;28;20701;-79
2022/10/14 04:18:48;;;;;;;18.60;14.20;;;11.40;99.90;;;;;;5045036;28;20182;-79
2022/10/14 04:21:14;;;;;;;17.30;13.55;;;11.40;99.90;;;;;;5044642;28;20257;-79
2022/10/14 04:23:40;;;;;;;15.68;12.90;;;11.40;99.90;;;;;;5044569;28;20292;-79
2022/10/14 04:26:08;;;;;;;15.02;13.38;;;11.40;99.90;;;;;;5042241;28;20198;-79
2022/10/14 04:28:34;;;;;;;18.38;15.02;;;11.50;99.90;;;;;;5044327;28;20193;-79
2022/10/14 04:31:00;;;;;;;17.23;14.10;;;11.40;99.90;;;;;;5045123;28;20212;-78
2022/10/14 04:33:26;;;;;;;15.35;12.73;;;11.50;99.90;;;;;;5044349;28;20289;-78
2022/10/14 04:36:03;;;;;;;17.13;14.43;;;11.40;99.90;;;;;;5043171;28;20209;-78
2022/10/14 04:38:29;;;;;;;18.40;15.23;;;11.50;99.90;;;;;;5042120;28;20185;-78
2022/10/14 04:40:56;;;;;;;16.23;13.68;;;11.50;99.90;;;;;;5043755;28;20650;-79
2022/10/14 04:43:21;;;;;;;15.27;13.32;;;11.40;99.90;;;;;;5039499;28;20214;-77
2022/10/14 04:45:48;;;;;;;16.10;14.23;;;11.50;99.90;;;;;;5047541;28;20186;-78
2022/10/14 04:48:14;;;;;;;15.52;12.25;;;11.50;99.90;;;;;;5049491;28;20186;-78
2022/10/14 04:50:40;;;;;;;15.63;13.48;;;11.40;99.90;;;;;;5048388;28;20208;-78
2022/10/14 04:53:05;;;;;;;19.50;14.55;;;11.40;99.90;;;;;;5049313;28;20693;-79
2022/10/14 04:55:31;;;;;;;17.00;13.98;;;11.40;99.90;;;;;;5046403;28;20256;-79
2022/10/14 04:57:56;;;;;;;15.88;14.18;;;11.30;99.90;;;;;;5048321;28;20217;-79
2022/10/14 05:00:22;;;;;;;20.52;15.20;;;11.50;99.90;;;;;;5048097;28;20178;-78
2022/10/14 05:02:48;;;;;;;18.83;15.68;;;11.40;99.90;;;;;;5043020;28;20235;-78
2022/10/14 05:05:13;;;;;;;15.68;14.05;;;11.40;99.90;;;;;;5048581;28;20193;-78
2022/10/14 05:07:40;;;;;;;16.73;14.07;;;11.50;99.90;;;;;;5049370;28;20179;-78
2022/10/14 05:10:06;;;;;;;16.02;14.35;;;11.50;99.90;;;;;;5047473;28;20301;-78
2022/10/14 05:12:32;;;;;;;17.98;14.77;;;11.50;99.90;;;;;;5048829;28;20214;-78
2022/10/14 05:14:58;;;;;;;18.05;15.32;;;11.60;99.90;;;;;;5048040;28;20210;-78
2022/10/14 05:17:23;;;;;;;17.17;14.45;;;11.40;99.90;;;;;;5049211;28;20206;-78
2022/10/14 05:19:49;;;;;;;12.80;11.43;;;11.40;99.90;;;;;;5048026;28;20186;-78
2022/10/14 05:22:14;;;;;;;15.02;12.88;;;11.40;99.90;;;;;;5049033;28;20178;-78
2022/10/14 05:24:40;;;;;;;16.63;14.18;;;11.40;99.90;;;;;;5046656;28;20193;-79
2022/10/14 05:27:06;;;;;;;16.65;14.60;;;11.40;99.90;;;;;;5047935;28;20229;-77
2022/10/14 05:29:31;;;;;;;18.35;15.40;;;11.40;99.90;;;;;;5048674;28;20182;-78
2022/10/14 05:31:57;;;;;;;21.98;16.95;;;11.50;99.90;;;;;;5047606;28;20252;-78
2022/10/14 05:34:23;;;;;;;23.00;17.95;;;11.40;99.90;;;;;;5047576;28;20261;-79
2022/10/14 05:36:48;;;;;;;22.40;18.25;;;11.40;1.00;;;;;;5048352;28;20285;-79
2022/10/14 05:39:14;;;;;;;21.63;17.17;;;11.20;1.00;;;;;;5047225;28;20975;-79
2022/10/14 05:41:39;;;;;;;20.05;16.73;;;11.40;1.00;;;;;;5047014;28;20182;-78
2022/10/14 05:44:05;;;;;;;18.17;14.65;;;11.40;1.00;;;;;;5047664;28;20202;-78
2022/10/14 05:46:31;;;;;;;23.65;18.42;;;11.50;1.00;;;;;;5048001;28;20228;-78
2022/10/14 05:48:59;;;;;;;28.65;20.42;;;11.50;1.00;;;;;;5047300;28;20210;-78
2022/10/14 05:51:25;;;;;;;23.55;19.40;;;11.50;1.00;;;;;;5047457;28;20182;-79
2022/10/14 05:53:50;;;;;;;23.15;17.27;;;11.50;1.00;;;;;;5045769;28;20627;-78
2022/10/14 05:56:19;;;;;;;18.70;16.27;;;11.50;1.00;;;;;;5045842;28;20233;-78
2022/10/14 05:58:45;;;;;;;22.05;18.48;;;11.40;1.00;;;;;;5043531;28;20244;-77
2022/10/14 06:01:11;;;;;;;21.15;17.92;;;11.40;1.00;;;;;;5048707;28;20182;-79
2022/10/14 06:03:36;;;;;;;19.92;16.67;;;11.30;1.00;;;;;;5048956;28;20198;-79
2022/10/14 06:06:02;;;;;;;17.17;14.05;;;11.50;1.00;;;;;;5049261;28;20609;-77
2022/10/14 06:08:28;;;;;;;22.77;17.98;;;11.40;1.00;;;;;;5049543;28;20189;-79
2022/10/14 06:10:53;;;;;;;29.17;21.98;;;11.30;1.00;;;;;;5049326;28;20189;-78
2022/10/14 06:13:20;;;;;;;27.67;21.05;;;11.70;1.00;;;;;;5048016;28;20205;-78
2022/10/14 06:15:46;;;;;;;21.73;17.38;;;11.50;1.00;;;;;;5048148;28;20336;-79
2022/10/14 06:18:11;;;;;;;20.00;17.48;;;11.60;1.00;;;;;;5049255;28;20265;-78
2022/10/14 06:20:37;;;;;;;29.48;21.73;;;11.60;1.00;;;;;;5047545;28;20193;-77
2022/10/14 06:23:03;;;;;;;21.92;18.55;;;11.60;1.00;;;;;;5048423;28;20229;-78
2022/10/14 06:25:29;;;;;;;23.30;19.55;;;11.60;1.00;;;;;;5047704;28;20204;-78
2022/10/14 06:28:02;;;;;;;19.15;17.00;;;11.70;1.00;;;;;;5048266;28;20196;-79
2022/10/14 06:30:27;;;;;;;19.80;16.35;;;11.70;1.00;;;;;;5044027;28;20212;-77
2022/10/14 06:32:53;;;;;;;21.63;17.95;;;11.80;99.90;;;;;;5048441;28;20202;-77
2022/10/14 06:35:19;;;;;;;20.35;15.38;;;11.70;1.00;;;;;;5047350;28;20186;-78
2022/10/14 06:37:45;;;;;;;26.90;21.23;;;11.90;99.90;;;;;;5049124;28;21238;-77
2022/10/14 06:40:10;;;;;;;21.42;17.75;;;11.90;99.90;;;;;;5048062;28;20193;-78
2022/10/14 06:42:37;;;;;;;19.15;16.00;;;11.90;99.90;;;;;;5046611;28;20289;-79
2022/10/14 06:45:04;;;;;;;23.52;18.35;;;11.90;99.90;;;;;;5048460;28;20214;-78
2022/10/14 06:47:30;;;;;;;20.42;16.08;;;11.90;99.90;;;;;;5048132;28;20213;-79
2022/10/14 06:49:56;;;;;;;19.60;16.63;;;11.90;99.90;;;;;;5048014;28;20178;-78
2022/10/14 06:52:22;;;;;;;21.52;17.98;;;12.00;99.90;;;;;;5048828;28;20186;-79
2022/10/14 06:54:47;;;;;;;21.90;18.50;;;12.00;99.90;;;;;;5048325;28;20210;-78
2022/10/14 06:57:13;;;;;;;21.80;18.33;;;12.00;99.90;;;;;;5047834;28;20584;-77
2022/10/14 06:59:38;;;;;;;20.13;16.02;;;12.00;99.90;;;;;;5047072;28;20182;-78
2022/10/14 07:02:04;;;;;;;19.10;16.98;;;12.00;99.90;;;;;;5042122;28;20201;-79
2022/10/14 07:04:30;;;;;;;19.77;16.52;;;12.00;99.90;;;;;;5046272;28;20198;-78
2022/10/14 07:06:57;;;;;;;21.05;17.35;;;12.00;99.90;;;;;;5048218;28;20194;-77
2022/10/14 07:09:23;;;;;;;20.08;17.08;;;11.90;99.90;;;;;;5047725;28;20189;-78
2022/10/14 07:11:49;;;;;;;18.63;16.20;;;11.90;1.00;;;;;;5048323;28;20456;-79
2022/10/14 07:14:15;;;;;;;23.45;17.27;;;11.90;1.00;;;;;;5048238;28;20796;-77
2022/10/14 07:16:44;;;;;;;20.88;16.85;;;11.90;1.00;;;;;;5048322;28;20292;-79
2022/10/14 07:19:09;;;;;;;19.95;17.02;;;11.90;1.00;;;;;;5047786;28;20790;-78
2022/10/14 07:21:35;;;;;;;20.60;16.08;;;12.10;1.00;;;;;;5048797;28;20270;-79
2022/10/14 07:24:00;;;;;;;19.65;16.50;;;12.30;1.00;;;;;;5044805;28;20206;-78
2022/10/14 07:26:29;;;;;;;17.90;15.77;;;12.40;99.90;;;;;;5047653;28;20664;-77
2022/10/14 07:28:54;;;;;;;17.17;15.40;;;12.60;99.90;;;;;;5045647;28;20182;-78
2022/10/14 07:31:20;;;;;;;18.35;15.50;;;12.80;99.90;;;;;;5047340;28;20197;-78
2022/10/14 07:33:45;;;;;;;18.48;16.48;;;12.90;99.90;;;;;;5048318;28;20202;-78
2022/10/14 07:36:16;;;;;;;20.38;15.68;;;13.10;99.90;;;;;;5040283;28;20573;-77
2022/10/14 07:38:42;;;;;;;19.60;16.13;;;13.10;99.90;;;;;;5042361;28;20665;-79
2022/10/14 07:41:16;;;;;;;17.83;15.70;;;13.20;99.90;;;;;;5044396;28;20269;-77
2022/10/14 07:44:07;;;;;;;17.95;16.05;;;13.30;99.90;;;;;;5049047;28;20206;-76
2022/10/14 07:46:36;;;;;;;17.67;14.85;;;13.30;99.90;;;;;;5048192;28;20206;-76
2022/10/14 07:49:06;;;;;;;17.63;15.57;;;13.40;99.90;;;;;;5044834;28;20214;-78
2022/10/14 07:51:33;;;;;;;16.95;14.95;;;13.40;99.90;;;;;;5044180;28;20190;-77
2022/10/14 07:54:00;;;;;;;16.42;14.55;;;13.40;99.90;;;;;;5045204;28;20214;-78
2022/10/14 07:56:26;;;;;;;18.92;15.88;;;13.50;99.90;;;;;;5047466;28;20218;-78
2022/10/14 07:58:53;;;;;;;16.05;14.32;;;13.50;99.90;;;;;;5046212;28;20175;-79
2022/10/14 08:01:18;;;;;;;20.23;16.63;;;13.60;99.90;;;;;;5043795;28;20185;-78
2022/10/14 08:03:46;;;;;;;17.45;15.52;;;13.60;99.90;;;;;;5039783;28;20198;-81
2022/10/14 08:06:13;;;;;;;18.25;15.48;;;13.50;99.90;;;;;;5040183;28;20256;-79
2022/10/14 08:08:39;;;;;;;18.90;15.82;;;13.70;96.20;;;;;;5049613;28;20729;-80
2022/10/14 08:11:11;;;;;;;20.02;16.60;;;13.90;82.80;;;;;;5042151;28;20221;-79
2022/10/14 08:13:37;;;;;;;19.48;15.77;;;14.10;51.00;;;;;;5045741;28;20233;-81
2022/10/14 08:16:12;;;;;;;16.27;14.57;;;14.30;38.60;;;;;;5042789;28;20587;-80
2022/10/14 08:18:38;;;;;;;17.23;14.35;;;14.40;3.10;;;;;;5044573;28;20170;-80
2022/10/14 08:21:03;;;;;;;15.05;13.55;;;14.50;1.00;;;;;;5044035;28;20713;-80
2022/10/14 08:23:29;;;;;;;15.63;14.00;;;14.60;1.00;;;;;;5044584;28;20197;-82
2022/10/14 08:25:54;;;;;;;14.48;13.07;;;14.70;1.00;;;;;;5046825;28;20228;-79
2022/10/14 08:28:20;;;;;;;16.08;13.88;;;14.80;1.00;;;;;;5044378;28;20709;-79
2022/10/14 08:30:47;;;;;;;14.77;13.23;;;14.90;1.00;;;;;;5043803;28;20198;-80
2022/10/14 08:33:13;;;;;;;15.48;13.85;;;14.80;1.00;;;;;;5041072;28;20213;-79
2022/10/14 08:35:38;;;;;;;14.77;13.27;;;14.80;1.00;;;;;;5043307;28;20202;-81
2022/10/14 08:38:04;;;;;;;20.08;14.05;;;14.80;1.00;;;;;;5044801;28;20252;-80
2022/10/14 08:40:55;;;;;;;15.50;13.82;;;14.70;1.00;;;;;;5043118;28;20715;-81
2022/10/14 08:43:29;;;;;;;16.85;15.05;;;14.80;1.00;;;;;;5038011;28;20430;-79
2022/10/14 08:46:05;;;;;;;17.45;15.65;;;14.90;1.00;;;;;;5043082;28;21087;-80
2022/10/14 08:48:32;;;;;;;16.42;14.63;;;14.70;1.00;;;;;;5046790;28;20526;-81
2022/10/14 08:51:12;;;;;;;16.10;14.50;;;14.80;1.00;;;;;;5045873;28;20657;-80
2022/10/14 08:53:52;;;;;;;18.63;13.75;;;14.80;1.00;;;;;;5046680;28;20198;-78
2022/10/14 08:56:19;;;;;;;18.52;14.38;;;14.90;1.00;;;;;;5046428;28;20198;-77
2022/10/14 08:58:48;;;;;;;27.60;14.80;;;14.80;1.00;;;;;;5038845;28;20239;-78
2022/10/14 09:01:35;;;;;;;18.77;13.82;;;14.80;1.00;;;;;;5040441;28;20190;-79
2022/10/14 09:04:06;;;;;;;16.25;13.35;;;14.90;1.00;;;;;;5042178;28;20201;-78
2022/10/14 09:06:33;;;;;;;14.75;13.30;;;14.90;1.00;;;;;;5036498;28;20182;-78
2022/10/14 09:09:33;;;;;;;15.32;12.95;;;15.00;1.00;;;;;;5036029;28;20205;-78
2022/10/14 09:12:04;;;;;;;16.90;14.02;;;15.00;1.00;;;;;;5039526;28;20198;-78
2022/10/14 09:14:45;;;;;;;18.38;13.73;;;15.10;1.00;;;;;;5042707;28;20810;-81
2022/10/14 09:17:22;;;;;;;15.25;13.70;;;15.20;27.50;;;;;;5044475;28;20247;-79
2022/10/14 09:20:01;;;;;;;15.35;13.75;;;15.30;1.00;;;;;;5043190;28;20466;-80
2022/10/14 09:22:27;;;;;;;14.65;12.18;;;15.30;1.00;;;;;;5044648;28;20175;-80
2022/10/14 09:24:53;;;;;;;11.70;10.15;;;15.50;1.00;;;;;;5044959;28;20206;-80
2022/10/14 09:27:20;;;;;;;10.97;9.20;;;15.70;1.00;;;;;;5044867;28;20420;-79
2022/10/14 09:29:59;;;;;;;10.80;9.70;;;15.80;1.00;;;;;;5044369;28;20190;-79
2022/10/14 09:32:30;;;;;;;9.95;8.82;;;15.90;1.00;;;;;;5047450;28;20189;-80
2022/10/14 09:34:58;;;;;;;9.32;8.27;;;15.90;1.00;;;;;;5041350;28;20578;-80
2022/10/14 09:37:32;;;;;;;10.52;9.32;;;15.90;1.00;;;;;;5041480;28;20209;-80
2022/10/14 09:40:02;;;;;;;12.55;9.73;;;15.90;1.00;;;;;;5039213;28;20701;-79
2022/10/14 09:42:46;;;;;;;10.05;9.05;;;15.60;1.00;;;;;;5041309;28;20602;-77
2022/10/14 09:45:18;;;;;;;10.25;8.65;;;15.60;1.00;;;;;;5043201;28;20253;-78
2022/10/14 09:47:57;;;;;;;12.73;8.23;;;15.60;1.00;;;;;;5042426;28;20244;-78
2022/10/14 09:50:33;;;;;;;10.07;7.47;;;15.80;1.00;;;;;;5039876;28;20615;-79
2022/10/14 09:53:02;;;;;;;7.50;6.75;;;15.90;1.00;;;;;;5043945;28;20197;-77
2022/10/14 09:55:29;;;;;;;6.82;6.15;;;16.20;1.00;;;;;;5042004;28;20184;-80
2022/10/14 09:58:07;;;;;;;8.43;6.22;;;16.40;1.00;;;;;;5043676;28;20174;-79
2022/10/14 10:00:36;;;;;;;6.20;5.60;;;16.60;1.00;;;;;;5043901;28;20882;-80
2022/10/14 10:03:02;;;;;;;5.03;4.53;;;16.60;1.00;;;;;;5042757;28;20210;-80
2022/10/14 10:05:31;;;;;;;6.20;4.13;;;16.80;1.00;;;;;;5045654;28;20178;-80
2022/10/14 10:08:17;;;;;;;4.90;4.50;;;16.80;1.00;;;;;;5045024;28;20179;-79
2022/10/14 10:11:09;;;;;;;6.18;5.57;;;16.80;1.00;;;;;;5043694;28;20197;-80
2022/10/14 10:13:45;;;;;;;6.88;5.18;;;16.90;1.00;;;;;;5053189;22;20230;-82
2022/10/14 10:16:18;;;;;;;2.85;2.40;;;16.90;1.00;;;;;;5024653;28;20256;-80
2022/10/14 10:18:44;;;;;;;2.58;2.38;;;16.90;1.00;;;;;;5021385;28;20186;-81
2022/10/14 10:21:23;;;;;;;2.90;2.60;;;17.10;1.00;;;;;;5022714;28;20190;-81
2022/10/14 10:24:00;;;;;;;3.17;2.70;;;17.20;1.00;;;;;;5021670;28;20237;-81
2022/10/14 10:26:32;;;;;;;3.30;2.97;;;17.10;1.00;;;;;;5022899;28;20175;-81
2022/10/14 10:29:01;;;;;;;4.15;2.75;;;17.20;1.00;;;;;;5023602;28;20258;-80
2022/10/14 10:32:10;;;;;;;3.90;3.60;;;17.50;1.00;;;;;;5023439;28;20290;-81
2022/10/14 10:34:49;;;;;;;4.88;3.35;;;17.30;1.00;;;;;;5025660;28;20214;-82
2022/10/14 10:37:41;;;;;;;3.65;3.35;;;17.40;1.00;;;;;;5025815;28;20856;-79
2022/10/14 10:40:16;;;;;;;5.82;5.22;;;17.30;1.00;;;;;;4987141;28;20244;-79
2022/10/14 10:43:19;;;;;;;3.63;3.33;;;17.20;1.00;;;;;;5023177;28;20689;-79
2022/10/14 10:45:57;;;;;;;4.57;4.00;;;17.00;1.00;;;;;;5025079;28;20213;-79
2022/10/14 10:48:31;;;;;;;4.95;3.75;;;16.90;1.00;;;;;;5024969;28;20183;-79
2022/10/14 10:51:08;;;;;;;3.50;3.20;;;17.00;1.00;;;;;;5023755;28;20270;-81
2022/10/14 10:53:43;;;;;;;4.10;3.70;;;17.00;1.00;;;;;;5023546;28;20229;-80
2022/10/14 10:56:33;;;;;;;5.38;3.17;;;17.30;1.00;;;;;;5023559;28;20198;-79
2022/10/14 10:59:05;;;;;;;3.00;2.70;;;17.50;1.00;;;;;;5011508;28;20458;-79
2022/10/14 11:02:02;;;;;;;3.15;2.75;;;17.60;1.00;;;;;;5025072;28;20614;-81
2022/10/14 11:04:44;;;;;;;3.00;2.80;;;17.50;1.00;;;;;;5024366;28;20203;-79
2022/10/14 11:13:36;;;;;;;6.18;3.33;;;17.40;1.00;;;;;;4992647;28;20545;-80
2022/10/14 11:16:06;;;;;;;4.00;3.13;;;17.10;1.00;;;;;;5022882;28;20276;-79
2022/10/14 11:18:44;;;;;;;4.10;3.35;;;17.20;1.00;;;;;;5022724;28;20313;-78
2022/10/14 11:21:22;;;;;;;3.20;2.90;;;17.20;1.00;;;;;;5022640;28;20183;-79
2022/10/14 11:24:09;;;;;;;3.60;2.55;;;17.20;1.00;;;;;;5024040;28;20249;-80
2022/10/14 11:26:57;;;;;;;3.72;2.30;;;17.20;1.00;;;;;;5023481;28;20262;-78
2022/10/14 11:29:41;;;;;;;2.95;2.20;;;17.20;1.00;;;;;;5023106;28;20256;-78
2022/10/14 11:32:19;;;;;;;2.10;1.50;;;17.60;1.00;;;;;;5022882;28;20182;-79
2022/10/14 11:35:06;;;;;;;1.90;1.65;;;18.00;1.00;;;;;;5022324;28;20481;-79
2022/10/14 11:37:47;;;;;;;1.40;1.30;;;18.30;1.00;;;;;;5022214;28;20309;-80
2022/10/14 11:40:20;;;;;;;2.63;1.40;;;18.20;1.00;;;;;;5023083;28;20190;-80
2022/10/14 11:46:04;;;;;;;1.17;1.08;;;18.10;1.00;;;;;;5042079;28;20217;-82
2022/10/14 11:48:43;;;;;;;1.45;1.33;;;18.00;1.00;;;;;;5043731;28;20350;-82
2022/10/14 11:51:26;;;;;;;1.52;1.25;;;17.80;1.00;;;;;;5042786;28;20185;-82
2022/10/14 11:53:52;;;;;;;1.48;1.33;;;18.00;1.00;;;;;;5043551;28;20205;-82
2022/10/14 11:56:49;;;;;;;1.73;1.13;;;18.10;1.00;;;;;;5042830;28;20210;-82
2022/10/14 11:59:35;;;;;;;1.60;1.50;;;18.20;1.00;;;;;;5044273;28;20174;-82
2022/10/14 12:02:13;;;;;;;2.00;1.17;;;18.20;1.00;;;;;;5043760;28;20201;-81
2022/10/14 12:04:43;;;;;;;2.67;1.10;;;18.10;1.00;;;;;;5042742;28;20200;-82
2022/10/14 12:07:17;;;;;;;2.50;1.40;;;18.10;1.00;;;;;;5042022;28;20182;-85
2022/10/14 12:09:54;;;;;;;2.42;1.30;;;18.00;1.00;;;;;;5041867;28;20179;-84
2022/10/14 12:12:23;;;;;;;2.58;1.35;;;18.10;1.00;;;;;;5038786;28;20189;-83
2022/10/14 12:14:59;;;;;;;3.53;1.40;;;18.00;1.00;;;;;;5037068;28;20708;-82
2022/10/14 12:17:46;;;;;;;3.42;1.58;;;17.90;1.00;;;;;;5038060;28;20236;-82
2022/10/14 12:20:43;;;;;;;2.65;1.50;;;17.70;1.00;;;;;;5035479;28;20183;-83
2022/10/14 12:23:28;;;;;;;1.38;1.27;;;17.70;1.00;;;;;;5027333;28;20202;-82
2022/10/14 12:26:12;;;;;;;1.45;1.35;;;17.70;1.00;;;;;;5042640;28;20404;-82
2022/10/14 12:28:39;;;;;;;1.73;1.40;;;17.90;1.00;;;;;;5045639;28;20663;-85
2022/10/14 12:31:42;;;;;;;1.20;1.10;;;18.30;1.00;;;;;;5044258;28;21225;-82
2022/10/14 12:34:12;;;;;;;1.67;1.33;;;18.50;1.00;;;;;;5038912;28;20217;-82
2022/10/14 12:36:46;;;;;;;1.50;1.10;;;19.00;1.00;;;;;;5041663;28;20212;-83
2022/10/14 12:39:18;;;;;;;1.35;0.88;;;19.20;1.00;;;;;;5049438;28;20202;-82
2022/10/14 12:41:54;;;;;;;1.10;1.00;;;19.30;1.00;;;;;;5040280;28;20193;-82
2022/10/14 12:44:22;;;;;;;2.50;1.33;;;19.30;1.00;;;;;;5040238;28;20351;-83
2022/10/14 12:46:50;;;;;;;2.65;1.17;;;19.30;1.00;;;;;;5043148;28;20196;-82
2022/10/14 12:49:36;;;;;;;1.05;0.93;;;19.10;1.00;;;;;;5041735;28;20178;-82
2022/10/14 12:52:05;;;;;;;1.23;1.13;;;18.80;1.00;;;;;;5042102;28;20702;-82
2022/10/14 12:54:33;;;;;;;1.23;0.80;;;18.50;1.00;;;;;;5042108;28;20202;-81
2022/10/14 12:57:24;;;;;;;0.80;0.80;;;18.50;1.00;;;;;;5045705;28;20578;-82
2022/10/14 12:59:52;;;;;;;1.58;1.00;;;18.40;1.00;;;;;;5038592;28;20218;-82
2022/10/14 13:02:31;;;;;;;1.30;1.00;;;18.40;1.00;;;;;;5043688;28;20265;-82
2022/10/14 13:05:00;;;;;;;0.80;0.80;;;18.30;1.00;;;;;;5041785;28;20263;-82